createdAt,value
2023-02-11T00:01:29.292Z,102144.84
2023-02-11T00:04:32.361Z,102146.31
2023-02-11T00:07:35.867Z,102137.56
2023-02-11T00:10:38.235Z,102142.63
2023-02-11T00:13:40.977Z,102137.28
2023-02-11T00:16:43.501Z,102138.03
2023-02-11T00:19:50.577Z,102138.03
2023-02-11T00:22:52.954Z,102134.50
2023-02-11T00:25:55.219Z,102137.09
2023-02-11T00:28:57.783Z,102129.13
2023-02-11T00:32:05.426Z,102135.91
2023-02-11T00:35:08.127Z,102137.47
2023-02-11T00:38:10.492Z,102140.72
2023-02-11T00:41:14.463Z,102136.22
2023-02-11T00:44:17.058Z,102128.34
2023-02-11T00:47:19.323Z,102131.72
2023-02-11T00:50:21.737Z,102127.44
2023-02-11T00:53:24.016Z,102122.38
2023-02-11T00:56:27.248Z,102121.72
2023-02-11T00:59:29.494Z,102119.97
2023-02-11T01:02:32.313Z,102116.44
2023-02-11T01:05:34.888Z,102122.47
2023-02-11T01:08:40.044Z,102113.12
2023-02-11T01:11:42.556Z,102116.66
2023-02-11T01:14:44.835Z,102115.16
2023-02-11T01:17:47.310Z,102105.97
2023-02-11T01:20:50.966Z,102099.16
2023-02-11T01:23:53.544Z,102089.97
2023-02-11T01:26:56.324Z,102080.75
2023-02-11T01:29:59.012Z,102074.22
2023-02-11T01:33:01.455Z,102053.66
2023-02-11T01:36:05.414Z,102067.03
2023-02-11T01:39:08.905Z,102068.91
2023-02-11T01:42:23.302Z,102070.06
2023-02-11T01:45:47.501Z,102057.53
2023-02-11T01:48:55.924Z,102052.47
2023-02-11T01:52:10.802Z,102048.94
2023-02-11T01:55:32.858Z,102040.31
2023-02-11T01:58:39.126Z,102047.91
2023-02-11T02:01:48.653Z,102038.97
2023-02-11T02:04:57.854Z,102029.44
2023-02-11T02:08:21.670Z,102010.31
2023-02-11T02:11:24.147Z,102017.41
2023-02-11T02:14:26.898Z,102016.63
2023-02-11T02:17:41.737Z,102009.72
2023-02-11T02:21:05.727Z,102008.84
2023-02-11T02:24:44.848Z,102016.44
2023-02-11T02:28:12.886Z,102001.75
2023-02-11T02:31:32.051Z,101998.25
2023-02-11T02:34:44.796Z,102008.63
2023-02-11T02:38:02.067Z,101998.16
2023-02-11T02:41:10.631Z,102002.38
2023-02-11T02:44:12.994Z,102003.84
2023-02-11T02:47:15.518Z,102005.44
2023-02-11T02:50:25.405Z,102000.97
2023-02-11T02:53:53.356Z,102001.62
2023-02-11T02:57:05.208Z,101997.22
2023-02-11T03:00:16.856Z,101991.12
2023-02-11T03:03:57.096Z,101987.75
2023-02-11T03:07:24.827Z,101997.06
2023-02-11T03:10:31.604Z,101996.06
2023-02-11T03:13:38.025Z,101995.22
2023-02-11T03:16:40.729Z,101998.94
2023-02-11T03:19:46.171Z,101991.59
2023-02-11T03:23:02.991Z,102002.56
2023-02-11T03:26:07.976Z,101992.91
2023-02-11T03:29:14.879Z,101996.06
2023-02-11T03:32:24.649Z,101996.69
2023-02-11T03:36:17.864Z,101999.31
2023-02-11T03:39:27.418Z,101988.03
2023-02-11T03:42:36.777Z,101994.09
2023-02-11T03:45:40.186Z,101992.09
2023-02-11T03:48:48.458Z,101991.00
2023-02-11T03:51:53.334Z,101989.72
2023-02-11T03:55:00.252Z,101988.66
2023-02-11T03:58:02.560Z,101980.75
2023-02-11T04:01:06.336Z,101979.78
2023-02-11T04:04:08.642Z,101972.41
2023-02-11T04:07:12.863Z,101968.87
2023-02-11T04:10:15.474Z,101965.19
2023-02-11T04:13:17.806Z,101957.66
2023-02-11T04:16:20.287Z,101950.22
2023-02-11T04:19:22.743Z,101946.16
2023-02-11T04:22:25.174Z,101943.66
2023-02-11T04:25:27.528Z,101936.09
2023-02-11T04:28:30.229Z,101932.03
2023-02-11T04:31:32.676Z,101927.00
2023-02-11T04:34:35.189Z,101935.75
2023-02-11T04:37:37.575Z,101938.56
2023-02-11T04:40:40.698Z,101930.91
2023-02-11T04:43:43.108Z,101927.41
2023-02-11T04:46:45.428Z,101923.00
2023-02-11T04:49:48.217Z,101922.06
2023-02-11T04:52:50.640Z,101923.59
2023-02-11T04:55:53.049Z,101930.22
2023-02-11T04:58:55.488Z,101919.91
2023-02-11T05:01:58.111Z,101924.25
2023-02-11T05:05:00.525Z,101918.16
2023-02-11T05:08:02.811Z,101905.13
2023-02-11T05:11:05.200Z,101899.06
2023-02-11T05:14:07.919Z,101896.53
2023-02-11T05:17:10.367Z,101895.59
2023-02-11T05:20:12.792Z,101894.72
2023-02-11T05:23:15.181Z,101893.00
2023-02-11T05:26:18.401Z,101892.06
2023-02-11T05:29:20.709Z,101891.22
2023-02-11T05:32:23.077Z,101892.78
2023-02-11T05:35:25.489Z,101892.59
2023-02-11T05:38:28.480Z,101888.19
2023-02-11T05:41:30.920Z,101881.19
2023-02-11T05:44:33.344Z,101890.50
2023-02-11T05:47:35.709Z,101892.78
2023-02-11T05:50:38.175Z,101899.47
2023-02-11T05:53:40.565Z,101896.78
2023-02-11T05:56:44.838Z,101904.44
2023-02-11T05:59:47.372Z,101910.34
2023-02-11T06:02:49.761Z,101901.69
2023-02-11T06:05:52.369Z,101906.75
2023-02-11T06:08:54.903Z,101907.09
2023-02-11T06:11:57.240Z,101910.53
2023-02-11T06:14:59.662Z,101917.41
2023-02-11T06:18:02.045Z,101902.03
2023-02-11T06:21:08.626Z,101905.56
2023-02-11T06:24:11.106Z,101915.03
2023-02-11T06:27:13.479Z,101915.91
2023-02-11T06:30:15.951Z,101914.94
2023-02-11T06:33:18.280Z,101909.78
2023-02-11T06:36:22.429Z,101907.28
2023-02-11T06:39:25.203Z,101902.03
2023-02-11T06:42:27.756Z,101890.09
2023-02-11T06:45:30.178Z,101888.66
2023-02-11T06:48:33.955Z,101892.50
2023-02-11T06:51:36.460Z,101893.50
2023-02-11T06:54:38.915Z,101902.13
2023-02-11T06:57:41.281Z,101894.37
2023-02-11T07:00:43.663Z,101910.66
2023-02-11T07:03:47.103Z,101915.22
2023-02-11T07:06:49.328Z,101911.00
2023-02-11T07:09:51.827Z,101908.50
2023-02-11T07:12:54.876Z,101908.63
2023-02-11T07:15:58.321Z,101887.97
2023-02-11T07:19:01.060Z,101905.63
2023-02-11T07:22:03.748Z,101901.66
2023-02-11T07:25:06.412Z,101908.91
2023-02-11T07:28:08.806Z,101901.72
2023-02-11T07:31:15.259Z,101901.41
2023-02-11T07:34:17.801Z,101891.19
2023-02-11T07:37:20.236Z,101882.44
2023-02-11T07:40:22.571Z,101873.69
2023-02-11T07:43:24.851Z,101882.06
2023-02-11T07:46:28.285Z,101887.22
2023-02-11T07:49:30.732Z,101896.00
2023-02-11T07:52:33.143Z,101893.56
2023-02-11T07:55:35.870Z,101883.91
2023-02-11T07:58:38.511Z,101894.81
2023-02-11T08:01:40.845Z,101881.34
2023-02-11T08:04:43.398Z,101881.75
2023-02-11T08:07:45.817Z,101887.50
2023-02-11T08:10:48.322Z,101890.34
2023-02-11T08:13:51.087Z,101891.00
2023-02-11T08:16:53.566Z,101885.78
2023-02-11T08:19:56.154Z,101882.00
2023-02-11T08:22:58.629Z,101890.75
2023-02-11T08:26:05.632Z,101885.22
2023-02-11T08:29:11.636Z,101886.00
2023-02-11T08:32:14.045Z,101882.28
2023-02-11T08:35:16.459Z,101881.16
2023-02-11T08:38:19.104Z,101891.22
2023-02-11T08:41:21.454Z,101886.84
2023-02-11T08:44:24.961Z,101884.84
2023-02-11T08:47:27.340Z,101880.50
2023-02-11T08:50:29.756Z,101873.38
2023-02-11T08:53:32.595Z,101883.06
2023-02-11T08:56:35.236Z,101879.56
2023-02-11T08:59:40.156Z,101873.53
2023-02-11T09:02:43.194Z,101863.19
2023-02-11T09:05:47.869Z,101875.53
2023-02-11T09:08:53.843Z,101876.59
2023-02-11T09:11:57.523Z,101867.97
2023-02-11T09:15:00.099Z,101871.59
2023-02-11T09:18:02.974Z,101859.63
2023-02-11T09:21:08.653Z,101849.19
2023-02-11T09:24:11.930Z,101852.75
2023-02-11T09:27:14.193Z,101865.94
2023-02-11T09:30:16.599Z,101862.62
2023-02-11T09:33:18.957Z,101867.03
2023-02-11T09:36:23.799Z,101863.72
2023-02-11T09:39:27.004Z,101866.53
2023-02-11T09:43:09.121Z,101860.47
2023-02-11T09:46:16.190Z,101853.44
2023-02-11T09:49:23.356Z,101864.72
2023-02-11T09:52:51.849Z,101847.19
2023-02-11T09:56:02.802Z,101853.22
2023-02-11T09:59:05.291Z,101852.97
2023-02-11T10:02:20.520Z,101852.12
2023-02-11T10:05:46.823Z,101856.69
2023-02-11T10:09:26.579Z,101854.13
2023-02-11T10:13:10.327Z,101830.50
2023-02-11T10:16:27.516Z,101820.03
2023-02-11T10:20:03.669Z,101818.34
2023-02-11T10:23:31.112Z,101806.91
2023-02-11T10:26:34.181Z,101800.75
2023-02-11T10:29:41.274Z,101798.09
2023-02-11T10:32:49.854Z,101794.72
2023-02-11T10:35:52.244Z,101779.78
2023-02-11T10:38:54.637Z,101776.28
2023-02-11T10:42:02.900Z,101777.91
2023-02-11T10:45:07.538Z,101766.88
2023-02-11T10:48:43.146Z,101760.28
2023-02-11T10:51:45.559Z,101755.03
2023-02-11T10:55:04.312Z,101755.97
2023-02-11T10:58:06.709Z,101764.72
2023-02-11T11:01:23.512Z,101746.81
2023-02-11T11:04:26.943Z,101739.22
2023-02-11T11:07:31.297Z,101720.50
2023-02-11T11:10:46.132Z,101716.06
2023-02-11T11:13:54.499Z,101714.34
2023-02-11T11:16:56.873Z,101696.69
2023-02-11T11:20:29.400Z,101686.91
2023-02-11T11:23:32.487Z,101694.66
2023-02-11T11:26:44.889Z,101693.00
2023-02-11T11:29:50.671Z,101687.66
2023-02-11T11:32:53.525Z,101689.34
2023-02-11T11:36:07.567Z,101680.00
2023-02-11T11:39:22.289Z,101686.63
2023-02-11T11:42:30.817Z,101680.84
2023-02-11T11:45:33.204Z,101680.22
2023-02-11T11:48:39.088Z,101670.16
2023-02-11T11:51:45.941Z,101685.91
2023-02-11T11:54:56.457Z,101681.72
2023-02-11T11:57:59.056Z,101680.38
2023-02-11T12:01:16.545Z,101665.97
2023-02-11T12:04:57.267Z,101659.72
2023-02-11T12:08:22.272Z,101653.84
2023-02-11T12:11:52.333Z,101645.34
2023-02-11T12:15:24.742Z,101644.25
2023-02-11T12:19:15.125Z,101654.75
2023-02-11T12:22:42.390Z,101647.00
2023-02-11T12:26:20.347Z,101629.38
2023-02-11T12:29:52.160Z,101625.91
2023-02-11T12:33:05.459Z,101615.66
2023-02-11T12:36:26.808Z,101611.31
2023-02-11T12:39:32.559Z,101601.84
2023-02-11T12:43:18.373Z,101581.63
2023-02-11T12:46:32.846Z,101576.84
2023-02-11T12:49:56.078Z,101568.81
2023-02-11T12:53:12.895Z,101564.50
2023-02-11T12:56:40.905Z,101565.19
2023-02-11T13:00:08.619Z,101563.47
2023-02-11T13:03:45.290Z,101568.22
2023-02-11T13:06:54.406Z,101557.31
2023-02-11T13:10:15.849Z,101553.03
2023-02-11T13:13:33.488Z,101544.47
2023-02-11T13:16:41.995Z,101540.47
2023-02-11T13:19:53.010Z,101542.75
2023-02-11T13:23:25.789Z,101532.16
2023-02-11T13:26:38.501Z,101516.69
2023-02-11T13:30:04.488Z,101515.25
2023-02-11T13:33:20.182Z,101520.03
2023-02-11T13:36:28.245Z,101506.38
2023-02-11T13:39:31.339Z,101498.66
2023-02-11T13:42:47.925Z,101508.75
2023-02-11T13:45:52.714Z,101498.00
2023-02-11T13:48:55.977Z,101494.81
2023-02-11T13:52:01.171Z,101497.03
2023-02-11T13:55:23.047Z,101502.50
2023-02-11T13:58:28.509Z,101504.97
2023-02-11T14:02:22.350Z,101501.37
2023-02-11T14:05:51.320Z,101510.00
2023-02-11T14:09:00.150Z,101504.19
2023-02-11T14:12:24.663Z,101495.66
2023-02-11T14:15:38.282Z,101497.38
2023-02-11T14:18:50.122Z,101505.41
2023-02-11T14:21:52.779Z,101500.44
2023-02-11T14:25:02.278Z,101498.63
2023-02-11T14:28:23.116Z,101500.34
2023-02-11T14:31:48.934Z,101500.63
2023-02-11T14:35:10.285Z,101499.22
2023-02-11T14:38:41.300Z,101492.31
2023-02-11T14:41:49.269Z,101495.13
2023-02-11T14:44:57.910Z,101487.87
2023-02-11T14:48:08.568Z,101479.25
2023-02-11T14:51:23.942Z,101476.88
2023-02-11T14:54:29.472Z,101480.50
2023-02-11T14:57:31.881Z,101468.25
2023-02-11T15:00:35.204Z,101481.53
2023-02-11T15:03:43.651Z,101484.09
2023-02-11T15:06:51.856Z,101479.06
2023-02-11T15:09:55.151Z,101478.00
2023-02-11T15:13:00.126Z,101471.25
2023-02-11T15:16:08.410Z,101485.19
2023-02-11T15:19:38.457Z,101502.84
2023-02-11T15:22:45.966Z,101504.78
2023-02-11T15:25:59.203Z,101494.59
2023-02-11T15:29:02.561Z,101501.63
2023-02-11T15:32:16.448Z,101497.31
2023-02-11T15:35:21.127Z,101503.50
2023-02-11T15:38:26.179Z,101511.56
2023-02-11T15:41:38.857Z,101503.75
2023-02-11T15:44:42.243Z,101490.06
2023-02-11T15:47:53.363Z,101484.91
2023-02-11T15:51:00.558Z,101472.84
2023-02-11T15:54:20.423Z,101461.50
2023-02-11T15:57:25.024Z,101483.28
2023-02-11T16:00:50.433Z,101481.56
2023-02-11T16:03:53.938Z,101469.41
2023-02-11T16:06:57.538Z,101464.31
2023-02-11T16:10:02.025Z,101461.72
2023-02-11T16:13:08.603Z,101446.97
2023-02-11T16:16:23.219Z,101454.84
2023-02-11T16:19:29.295Z,101445.31
2023-02-11T16:22:38.809Z,101458.41
2023-02-11T16:25:43.591Z,101470.63
2023-02-11T16:28:51.906Z,101456.81
2023-02-11T16:32:11.406Z,101449.12
2023-02-11T16:35:18.673Z,101453.59
2023-02-11T16:38:22.192Z,101449.38
2023-02-11T16:41:26.227Z,101445.97
2023-02-11T16:44:30.485Z,101439.94
2023-02-11T16:47:35.820Z,101434.84
2023-02-11T16:50:46.174Z,101439.31
2023-02-11T16:53:49.885Z,101435.84
2023-02-11T16:56:53.553Z,101439.41
2023-02-11T16:59:57.019Z,101436.75
2023-02-11T17:03:00.747Z,101432.50
2023-02-11T17:06:07.571Z,101462.06
2023-02-11T17:09:37.795Z,101456.00
2023-02-11T17:12:42.256Z,101458.59
2023-02-11T17:15:46.162Z,101450.78
2023-02-11T17:18:50.374Z,101445.59
2023-02-11T17:21:54.793Z,101407.53
2023-02-11T17:24:59.401Z,101441.41
2023-02-11T17:28:02.878Z,101450.13
2023-02-11T17:31:10.773Z,101456.22
2023-02-11T17:34:15.452Z,101451.88
2023-02-11T17:37:19.288Z,101455.34
2023-02-11T17:40:23.913Z,101451.84
2023-02-11T17:43:28.899Z,101454.44
2023-02-11T17:46:32.974Z,101455.34
2023-02-11T17:49:36.948Z,101457.03
2023-02-11T17:52:40.664Z,101451.81
2023-02-11T17:55:46.219Z,101451.88
2023-02-11T17:58:50.820Z,101451.88
2023-02-11T18:01:55.012Z,101439.69
2023-02-11T18:04:59.359Z,101445.75
2023-02-11T18:08:07.558Z,101444.88
2023-02-11T18:11:13.714Z,101451.88
2023-02-11T18:14:17.716Z,101451.03
2023-02-11T18:17:23.706Z,101450.09
2023-02-11T18:20:27.374Z,101446.66
2023-02-11T18:23:31.244Z,101451.03
2023-02-11T18:26:35.813Z,101451.06
2023-02-11T18:29:39.722Z,101457.16
2023-02-11T18:32:44.492Z,101443.28
2023-02-11T18:35:49.820Z,101449.38
2023-02-11T18:38:55.228Z,101437.22
2023-02-11T18:42:00.299Z,101438.97
2023-02-11T18:45:04.369Z,101439.84
2023-02-11T18:48:09.529Z,101441.62
2023-02-11T18:51:22.084Z,101447.72
2023-02-11T18:54:27.453Z,101459.16
2023-02-11T18:57:31.549Z,101456.56
2023-02-11T19:00:37.096Z,101453.16
2023-02-11T19:03:41.539Z,101452.34
2023-02-11T19:06:49.458Z,101452.41
2023-02-11T19:09:52.535Z,101472.47
2023-02-11T19:12:59.656Z,101478.56
2023-02-11T19:16:11.066Z,101473.38
2023-02-11T19:19:18.182Z,101476.91
2023-02-11T19:22:24.643Z,101480.41
2023-02-11T19:25:28.786Z,101477.78
2023-02-11T19:28:33.291Z,101476.94
2023-02-11T19:31:37.761Z,101483.94
2023-02-11T19:34:44.502Z,101481.37
2023-02-11T19:37:49.186Z,101484.87
2023-02-11T19:40:59.870Z,101475.31
2023-02-11T19:44:06.055Z,101480.53
2023-02-11T19:47:11.356Z,101474.47
2023-02-11T19:50:16.564Z,101476.19
2023-02-11T19:53:20.929Z,101469.25
2023-02-11T19:56:25.002Z,101460.59
2023-02-11T19:59:29.127Z,101459.72
2023-02-11T20:02:38.191Z,101461.50
2023-02-11T20:05:47.896Z,101470.19
2023-02-11T20:09:07.170Z,101477.19
2023-02-11T20:12:12.895Z,101471.97
2023-02-11T20:15:18.480Z,101478.06
2023-02-11T20:18:22.001Z,101478.06
2023-02-11T20:21:31.934Z,101474.59
2023-02-11T20:24:35.990Z,101471.13
2023-02-11T20:27:39.991Z,101477.19
2023-02-11T20:30:43.911Z,101481.56
2023-02-11T20:33:48.894Z,101477.22
2023-02-11T20:36:52.554Z,101479.81
2023-02-11T20:39:56.192Z,101482.41
2023-02-11T20:43:01.009Z,101485.91
2023-02-11T20:46:08.743Z,101472.88
2023-02-11T20:49:18.233Z,101476.38
2023-02-11T20:52:22.777Z,101495.47
2023-02-11T20:55:28.363Z,101485.03
2023-02-11T20:58:33.667Z,101492.84
2023-02-11T21:01:44.085Z,101493.72
2023-02-11T21:04:48.235Z,101495.47
2023-02-11T21:07:53.523Z,101494.63
2023-02-11T21:10:59.327Z,101496.31
2023-02-11T21:14:03.199Z,101485.91
2023-02-11T21:17:09.168Z,101474.63
2023-02-11T21:20:12.950Z,101485.91
2023-02-11T21:23:16.355Z,101487.63
2023-02-11T21:26:19.722Z,101489.38
2023-02-11T21:29:23.377Z,101498.03
2023-02-11T21:32:27.939Z,101498.03
2023-02-11T21:35:38.436Z,101482.41
2023-02-11T21:38:42.722Z,101489.38
2023-02-11T21:41:47.626Z,101497.19
2023-02-11T21:44:51.338Z,101494.59
2023-02-11T21:47:55.093Z,101486.78
2023-02-11T21:50:58.364Z,101487.63
2023-02-11T21:54:04.769Z,101498.94
2023-02-11T21:57:08.196Z,101491.09
2023-02-11T22:00:12.606Z,101505.84
2023-02-11T22:03:15.410Z,101496.28
2023-02-11T22:06:21.956Z,101492.78
2023-02-11T22:09:24.747Z,101496.22
2023-02-11T22:12:27.398Z,101502.28
2023-02-11T22:15:30.031Z,101508.37
2023-02-11T22:18:33.164Z,101510.97
2023-02-11T22:21:37.596Z,101497.06
2023-02-11T22:24:42.426Z,101509.22
2023-02-11T22:27:45.331Z,101510.09
2023-02-11T22:30:53.717Z,101505.78
2023-02-11T22:33:56.989Z,101497.06
2023-02-11T22:36:59.423Z,101500.50
2023-02-11T22:40:01.874Z,101498.78
2023-02-11T22:43:04.400Z,101508.34
2023-02-11T22:46:08.008Z,101516.13
2023-02-11T22:49:14.553Z,101514.38
2023-02-11T22:52:17.741Z,101503.97
2023-02-11T22:55:21.279Z,101497.03
2023-02-11T22:58:25.154Z,101504.84
2023-02-11T23:01:28.780Z,101505.72
2023-02-11T23:04:31.083Z,101504.81
2023-02-11T23:07:33.411Z,101508.31
2023-02-11T23:10:37.227Z,101510.06
2023-02-11T23:13:41.391Z,101512.69
2023-02-11T23:16:43.796Z,101521.37
2023-02-11T23:19:46.292Z,101513.59
2023-02-11T23:22:49.735Z,101515.37
2023-02-11T23:25:52.051Z,101517.97
2023-02-11T23:28:56.372Z,101517.09
2023-02-11T23:31:59.140Z,101511.87
2023-02-11T23:35:01.516Z,101518.84
2023-02-11T23:38:04.014Z,101510.16
2023-02-11T23:41:06.600Z,101528.41
2023-02-11T23:44:10.927Z,101516.25
2023-02-11T23:47:13.425Z,101506.72
2023-02-11T23:50:16.052Z,101499.75
2023-02-11T23:53:19.592Z,101504.13
2023-02-11T23:56:26.621Z,101498.91
2023-02-11T23:59:28.987Z,101488.50
